首页
METAR-TAF:

METAR-TAF

机场 :

拉巴特-塞拉国际机场

拉巴特, 摩洛哥

纬度: 34-03N, 经度: 006-46W, 海拔: 84米

当前天气观测

该预报发布于27分钟前的11:00 UTC
风速7节,风向南转西南
温度 13°C
湿度 88%
气压 1017 hPa
能見度: 5000
散云层高于1000英尺
散云层高于1500英尺, 塔状积云.
多云层高于2600英尺

METAR: GMME 241100Z 21007KT 5000 SCT010 SCT015TCU BKN026 13/11 Q1017 TEMPO RA

时间: 11:27 (11:27 UTC)

预报

该预报发布于6小时和27分钟前的05:00 UTC
预报有效从24日的 06点(UTC)到 25日的 12点(UTC)
风速8节,风向东北
能見度: 8000
散云层高于1500英尺
散云层高于2600英尺
短暂存在
从 24日的 06点(UTC)到 24日的 15点(UTC)
风速8节,风向西南
能見度: 4000
多云层高于1300英尺, 塔状积云.
多云层高于1600英尺

TAF: GMME 240500Z 2406/2512 04008KT 8000 SCT015 SCT026 TEMPO 2406/2415 22008KT 4000 RA BKN013TCU BKN016

超过4000个机场的气象观测和天气预报(METAR&TAF报告)。

可查询的气象台以黄色和红色小点在地图上表示。

将鼠标移到小点上方,可查看气象台名称。

然后点击查看天气观测和预报。

如需切换地图:点击带黑十字的绿色按钮放大地图;点击带横线的绿色按钮缩小地图;或者点击绿色箭头查看邻近地区的地图。


METAR-TAF: